createdAt,value
2022-10-03T00:01:09.832Z,9.90
2022-10-03T00:03:46.873Z,9.90
2022-10-03T00:06:26.799Z,9.90
2022-10-03T00:09:15.238Z,9.90
2022-10-03T00:12:01.001Z,9.90
2022-10-03T00:14:40.289Z,9.90
2022-10-03T00:17:16.498Z,9.90
2022-10-03T00:19:54.767Z,9.90
2022-10-03T00:22:33.445Z,9.90
2022-10-03T00:25:21.553Z,10.00
2022-10-03T00:28:06.078Z,10.00
2022-10-03T00:30:47.037Z,10.00
2022-10-03T00:33:24.135Z,10.00
2022-10-03T00:36:01.699Z,10.00
2022-10-03T00:38:48.043Z,10.00
2022-10-03T00:41:44.105Z,10.00
2022-10-03T00:44:45.280Z,10.00
2022-10-03T00:47:27.115Z,10.00
2022-10-03T00:50:06.663Z,10.00
2022-10-03T00:52:57.807Z,10.00
2022-10-03T00:55:35.592Z,10.10
2022-10-03T00:58:18.403Z,10.00
2022-10-03T01:00:53.761Z,10.00
2022-10-03T01:03:33.800Z,10.00
2022-10-03T01:06:14.940Z,10.00
2022-10-03T01:09:06.867Z,10.00
2022-10-03T01:11:45.180Z,10.00
2022-10-03T01:14:28.394Z,10.00
2022-10-03T01:17:09.675Z,10.00
2022-10-03T01:19:52.080Z,10.00
2022-10-03T01:22:35.642Z,10.00
2022-10-03T01:25:13.079Z,10.00
2022-10-03T01:28:07.716Z,10.10
2022-10-03T01:30:44.425Z,10.10
2022-10-03T01:33:24.058Z,10.00
2022-10-03T01:36:00.268Z,10.00
2022-10-03T01:38:36.669Z,10.10
2022-10-03T01:41:12.435Z,10.10
2022-10-03T01:43:49.443Z,10.10
2022-10-03T01:46:29.087Z,10.10
2022-10-03T01:49:03.660Z,10.10
2022-10-03T01:51:44.303Z,10.10
2022-10-03T01:54:20.150Z,10.10
2022-10-03T01:56:58.559Z,10.10
2022-10-03T01:59:36.385Z,10.10
2022-10-03T02:02:13.872Z,10.10
2022-10-03T02:04:49.816Z,10.10
2022-10-03T02:07:25.257Z,10.10
2022-10-03T02:10:07.320Z,10.10
2022-10-03T02:12:41.342Z,10.10
2022-10-03T02:15:17.519Z,10.10
2022-10-03T02:17:55.706Z,10.20
2022-10-03T02:20:35.746Z,10.10
2022-10-03T02:23:23.715Z,10.10
2022-10-03T02:26:04.423Z,10.10
2022-10-03T02:28:55.866Z,10.10
2022-10-03T02:31:47.685Z,10.10
2022-10-03T02:34:33.181Z,10.20
2022-10-03T02:37:27.438Z,10.20
2022-10-03T02:40:10.396Z,10.10
2022-10-03T02:43:07.736Z,10.10
2022-10-03T02:46:05.254Z,10.00
2022-10-03T02:48:48.486Z,10.00
2022-10-03T02:51:35.308Z,10.00
2022-10-03T02:54:23.173Z,10.00
2022-10-03T02:57:17.834Z,10.00
2022-10-03T03:00:11.732Z,9.90
2022-10-03T03:03:02.459Z,9.90
2022-10-03T03:06:05.034Z,9.90
2022-10-03T03:08:51.323Z,9.90
2022-10-03T03:11:39.617Z,9.80
2022-10-03T03:14:32.684Z,9.80
2022-10-03T03:17:14.436Z,9.80
2022-10-03T03:20:04.648Z,9.80
2022-10-03T03:22:44.878Z,9.80
2022-10-03T03:25:40.165Z,9.70
2022-10-03T03:28:21.587Z,9.70
2022-10-03T03:31:01.875Z,9.70
2022-10-03T03:33:39.034Z,9.70
2022-10-03T03:36:16.730Z,9.70
2022-10-03T03:38:55.650Z,9.70
2022-10-03T03:41:38.636Z,9.70
2022-10-03T03:44:25.652Z,9.70
2022-10-03T03:47:14.707Z,9.80
2022-10-03T03:49:53.573Z,9.80
2022-10-03T03:52:35.214Z,9.80
2022-10-03T03:55:18.723Z,9.80
2022-10-03T03:57:56.645Z,9.80
2022-10-03T04:00:37.789Z,9.80
2022-10-03T04:03:20.094Z,9.80
2022-10-03T04:06:00.695Z,9.80
2022-10-03T04:08:41.667Z,9.80
2022-10-03T04:11:21.504Z,9.80
2022-10-03T04:14:09.346Z,9.80
2022-10-03T04:17:14.710Z,9.80
2022-10-03T04:19:57.886Z,9.80
2022-10-03T04:22:41.675Z,9.80
2022-10-03T04:25:26.431Z,9.80
2022-10-03T04:28:17.660Z,9.80
2022-10-03T04:30:57.107Z,9.80
2022-10-03T04:33:37.587Z,9.90
2022-10-03T04:36:25.237Z,9.90
2022-10-03T04:39:04.611Z,9.90
2022-10-03T04:41:43.207Z,9.90
2022-10-03T04:44:29.526Z,9.90
2022-10-03T04:47:05.873Z,9.90
2022-10-03T04:49:43.494Z,9.90
2022-10-03T04:52:20.074Z,10.00
2022-10-03T04:54:57.854Z,10.00
2022-10-03T04:57:33.112Z,10.00
2022-10-03T05:00:16.509Z,10.10
2022-10-03T05:02:53.571Z,10.00
2022-10-03T05:05:30.816Z,10.00
2022-10-03T05:08:07.232Z,10.00
2022-10-03T05:10:52.303Z,10.00
2022-10-03T05:13:33.813Z,10.00
2022-10-03T05:16:09.463Z,10.00
2022-10-03T05:18:46.380Z,10.00
2022-10-03T05:21:28.487Z,10.00
2022-10-03T05:24:04.604Z,10.00
2022-10-03T05:26:45.448Z,10.00
2022-10-03T05:29:25.314Z,10.00
2022-10-03T05:32:07.540Z,10.00
2022-10-03T05:34:50.436Z,10.10
2022-10-03T05:37:36.581Z,10.10
2022-10-03T05:40:16.401Z,10.10
2022-10-03T05:43:00.003Z,10.10
2022-10-03T05:45:36.843Z,10.10
2022-10-03T05:48:15.960Z,10.10
2022-10-03T05:51:13.496Z,10.20
2022-10-03T05:53:59.327Z,10.20
2022-10-03T05:56:49.385Z,10.30
2022-10-03T05:59:40.276Z,10.30
2022-10-03T06:02:34.461Z,10.30
2022-10-03T06:05:16.572Z,10.40
2022-10-03T06:08:00.943Z,10.40
2022-10-03T06:10:43.852Z,10.50
2022-10-03T06:13:20.838Z,10.50
2022-10-03T06:16:09.431Z,10.50
2022-10-03T06:18:57.425Z,10.50
2022-10-03T06:21:50.429Z,10.60
2022-10-03T06:24:36.428Z,10.60
2022-10-03T06:27:26.124Z,10.60
2022-10-03T06:30:11.799Z,10.70
2022-10-03T06:33:04.060Z,10.70
2022-10-03T06:35:59.624Z,10.80
2022-10-03T06:38:44.607Z,10.80
2022-10-03T06:41:35.778Z,10.80
2022-10-03T06:44:23.763Z,10.90
2022-10-03T06:47:06.919Z,11.00
2022-10-03T06:49:50.991Z,10.90
2022-10-03T06:52:39.193Z,10.90
2022-10-03T06:55:21.972Z,10.90
2022-10-03T06:58:13.678Z,10.90
2022-10-03T07:00:56.346Z,10.90
2022-10-03T07:03:59.559Z,10.90
2022-10-03T07:06:48.894Z,10.80
2022-10-03T07:09:39.874Z,10.80
2022-10-03T07:12:31.618Z,10.70
2022-10-03T07:15:38.116Z,10.70
2022-10-03T07:18:31.151Z,10.60
2022-10-03T07:21:34.173Z,10.60
2022-10-03T07:24:19.627Z,10.60
2022-10-03T07:27:10.004Z,10.60
2022-10-03T07:30:04.103Z,10.60
2022-10-03T07:32:56.122Z,10.60
2022-10-03T07:35:58.983Z,10.70
2022-10-03T07:39:00.809Z,10.70
2022-10-03T07:41:54.645Z,10.80
2022-10-03T07:44:48.510Z,10.80
2022-10-03T07:47:34.378Z,10.80
2022-10-03T07:50:25.535Z,10.80
2022-10-03T07:53:08.068Z,10.80
2022-10-03T07:55:51.708Z,10.80
2022-10-03T07:58:34.852Z,10.80
2022-10-03T08:01:14.274Z,10.80
2022-10-03T08:04:06.129Z,10.90
2022-10-03T08:06:42.358Z,10.90
2022-10-03T08:09:25.969Z,10.90
2022-10-03T08:12:29.392Z,10.90
2022-10-03T08:15:09.641Z,10.90
2022-10-03T08:18:11.859Z,11.00
2022-10-03T08:20:50.093Z,10.90
2022-10-03T08:23:41.975Z,10.90
2022-10-03T08:26:20.773Z,10.90
2022-10-03T08:29:04.238Z,11.00
2022-10-03T08:31:45.824Z,11.10
2022-10-03T08:34:32.785Z,11.10
2022-10-03T08:37:22.190Z,11.20
2022-10-03T08:40:12.527Z,11.30
2022-10-03T08:43:02.259Z,11.20
2022-10-03T08:45:53.281Z,11.20
2022-10-03T08:48:41.569Z,11.30
2022-10-03T08:51:41.341Z,11.30
2022-10-03T08:54:24.752Z,11.30
2022-10-03T08:57:07.518Z,11.40
2022-10-03T08:59:55.522Z,11.40
2022-10-03T09:02:43.541Z,11.40
2022-10-03T09:05:37.393Z,11.50
2022-10-03T09:08:43.677Z,11.50
2022-10-03T09:11:38.185Z,11.60
2022-10-03T09:14:35.681Z,11.60
2022-10-03T09:17:28.939Z,11.60
2022-10-03T09:20:17.823Z,11.60
2022-10-03T09:23:20.950Z,11.70
2022-10-03T09:26:00.165Z,11.80
2022-10-03T09:28:58.245Z,11.70
2022-10-03T09:31:47.801Z,11.80
2022-10-03T09:34:34.913Z,11.70
2022-10-03T09:37:26.488Z,11.70
2022-10-03T09:40:12.164Z,11.70
2022-10-03T09:43:12.781Z,11.80
2022-10-03T09:45:59.532Z,11.60
2022-10-03T09:48:48.347Z,11.50
2022-10-03T09:51:26.997Z,11.60
2022-10-03T09:54:17.860Z,11.50
2022-10-03T09:57:22.701Z,11.50
2022-10-03T10:00:14.619Z,11.50
2022-10-03T10:03:04.455Z,11.50
2022-10-03T10:05:52.448Z,11.50
2022-10-03T10:08:52.494Z,11.50
2022-10-03T10:11:34.365Z,11.50
2022-10-03T10:14:26.171Z,11.50
2022-10-03T10:17:17.696Z,11.50
2022-10-03T10:19:56.356Z,11.50
2022-10-03T10:22:56.595Z,11.40
2022-10-03T10:25:47.345Z,11.40
2022-10-03T10:28:36.512Z,11.40
2022-10-03T10:31:29.148Z,11.30
2022-10-03T10:34:24.906Z,11.40
2022-10-03T10:37:19.321Z,11.40
2022-10-03T10:40:26.359Z,11.50
2022-10-03T10:43:17.135Z,11.50
2022-10-03T10:46:04.735Z,11.50
2022-10-03T10:49:00.115Z,11.50
2022-10-03T10:51:57.470Z,11.50
2022-10-03T10:54:52.537Z,11.40
2022-10-03T10:57:30.646Z,11.40
2022-10-03T11:00:21.386Z,11.40
2022-10-03T11:03:12.813Z,11.40
2022-10-03T11:06:24.085Z,11.40
2022-10-03T11:09:28.355Z,11.50
2022-10-03T11:12:20.705Z,11.50
2022-10-03T11:15:08.701Z,11.50
2022-10-03T11:17:55.374Z,11.50
2022-10-03T11:20:41.922Z,11.40
2022-10-03T11:23:35.936Z,11.50
2022-10-03T11:26:35.624Z,11.50
2022-10-03T11:29:41.091Z,11.50
2022-10-03T11:32:30.524Z,11.60
2022-10-03T11:35:27.907Z,11.70
2022-10-03T11:38:06.624Z,11.70
2022-10-03T11:40:45.430Z,11.80
2022-10-03T11:43:36.990Z,11.70
2022-10-03T11:46:21.154Z,11.70
2022-10-03T11:48:56.194Z,11.70
2022-10-03T11:51:37.812Z,11.60
2022-10-03T11:54:30.929Z,11.60
2022-10-03T11:57:08.498Z,11.60
2022-10-03T12:00:00.989Z,11.60
2022-10-03T12:03:00.389Z,11.50
2022-10-03T12:05:42.316Z,11.50
2022-10-03T12:08:38.471Z,11.50
2022-10-03T12:11:17.587Z,11.50
2022-10-03T12:13:57.707Z,11.60
2022-10-03T12:16:31.766Z,11.60
2022-10-03T12:19:10.260Z,11.60
2022-10-03T12:21:51.127Z,11.60
2022-10-03T12:24:28.859Z,11.60
2022-10-03T12:27:07.469Z,11.60
2022-10-03T12:29:44.300Z,11.60
2022-10-03T12:32:20.037Z,11.60
2022-10-03T12:34:58.764Z,11.60
2022-10-03T12:37:44.443Z,11.50
2022-10-03T12:40:21.851Z,11.50
2022-10-03T12:43:03.581Z,11.50
2022-10-03T12:45:40.667Z,11.50
2022-10-03T12:48:20.977Z,11.40
2022-10-03T12:50:57.094Z,11.40
2022-10-03T12:53:35.770Z,11.50
2022-10-03T12:56:15.291Z,11.40
2022-10-03T12:59:07.913Z,11.40
2022-10-03T13:01:48.839Z,11.40
2022-10-03T13:04:29.917Z,11.30
2022-10-03T13:07:09.489Z,11.30
2022-10-03T13:09:57.399Z,11.20
2022-10-03T13:12:40.383Z,11.10
2022-10-03T13:15:44.458Z,11.00
2022-10-03T13:18:32.589Z,11.00
2022-10-03T13:21:33.403Z,10.90
2022-10-03T13:24:07.236Z,10.90
2022-10-03T13:26:45.678Z,10.90
2022-10-03T13:29:39.049Z,10.90
2022-10-03T13:32:30.154Z,10.90
2022-10-03T13:35:26.591Z,10.90
2022-10-03T13:38:07.850Z,10.90
2022-10-03T13:40:43.472Z,10.90
2022-10-03T13:43:19.623Z,10.90
2022-10-03T13:45:56.966Z,10.90
2022-10-03T13:48:31.866Z,10.90
2022-10-03T13:51:07.377Z,10.90
2022-10-03T13:53:56.108Z,10.90
2022-10-03T13:56:49.408Z,10.90
2022-10-03T13:59:33.132Z,10.90
2022-10-03T14:02:21.337Z,11.00
2022-10-03T14:05:10.077Z,11.00
2022-10-03T14:07:48.817Z,11.10
2022-10-03T14:10:34.892Z,11.20
2022-10-03T14:13:17.200Z,11.20
2022-10-03T14:15:53.159Z,11.40
2022-10-03T14:18:37.418Z,11.40
2022-10-03T14:21:29.437Z,11.50
2022-10-03T14:24:06.804Z,11.60
2022-10-03T14:26:45.311Z,11.70
2022-10-03T14:29:22.282Z,11.70
2022-10-03T14:31:59.052Z,11.70
2022-10-03T14:34:40.156Z,11.70
2022-10-03T14:37:19.603Z,11.70
2022-10-03T14:39:58.805Z,11.60
2022-10-03T14:42:36.667Z,11.70
2022-10-03T14:45:14.153Z,11.60
2022-10-03T14:47:50.119Z,11.60
2022-10-03T14:50:24.130Z,11.60
2022-10-03T14:53:02.492Z,11.60
2022-10-03T14:55:39.766Z,11.60
2022-10-03T14:58:17.692Z,11.60
2022-10-03T15:00:55.464Z,11.50
2022-10-03T15:03:38.057Z,11.50
2022-10-03T15:06:22.517Z,11.40
2022-10-03T15:08:57.176Z,11.40
2022-10-03T15:11:32.355Z,11.30
2022-10-03T15:14:06.667Z,11.30
2022-10-03T15:16:45.792Z,11.20
2022-10-03T15:19:20.922Z,11.20
2022-10-03T15:21:54.250Z,11.20
2022-10-03T15:24:30.810Z,11.20
2022-10-03T15:27:05.651Z,11.20
2022-10-03T15:29:39.752Z,11.20
2022-10-03T15:32:22.618Z,11.10
2022-10-03T15:34:58.173Z,11.10
2022-10-03T15:37:34.023Z,11.10
2022-10-03T15:40:11.125Z,11.10
2022-10-03T15:42:49.571Z,11.00
2022-10-03T15:45:25.851Z,11.00
2022-10-03T15:48:02.552Z,11.00
2022-10-03T15:50:39.465Z,10.90
2022-10-03T15:53:35.449Z,11.00
2022-10-03T15:56:11.814Z,10.90
2022-10-03T15:58:47.730Z,10.90
2022-10-03T16:01:22.162Z,10.90
2022-10-03T16:03:58.871Z,10.90
2022-10-03T16:06:36.026Z,10.90
2022-10-03T16:09:16.966Z,10.90
2022-10-03T16:11:55.863Z,10.90
2022-10-03T16:14:31.232Z,10.80
2022-10-03T16:17:08.720Z,10.80
2022-10-03T16:19:43.855Z,10.80
2022-10-03T16:22:20.447Z,10.70
2022-10-03T16:25:03.830Z,10.70
2022-10-03T16:27:41.555Z,10.70
2022-10-03T16:30:20.673Z,10.70
2022-10-03T16:32:59.425Z,10.60
2022-10-03T16:35:35.910Z,10.50
2022-10-03T16:38:16.934Z,10.50
2022-10-03T16:40:55.053Z,10.40
2022-10-03T16:43:30.698Z,10.30
2022-10-03T16:46:06.209Z,10.20
2022-10-03T16:49:00.446Z,10.10
2022-10-03T16:51:41.444Z,10.10
2022-10-03T16:54:15.916Z,10.10
2022-10-03T16:56:52.584Z,10.10
2022-10-03T16:59:26.266Z,10.00
2022-10-03T17:02:01.017Z,10.10
2022-10-03T17:04:35.035Z,10.00
2022-10-03T17:07:14.666Z,10.00
2022-10-03T17:09:48.994Z,10.00
2022-10-03T17:12:24.307Z,10.00
2022-10-03T17:14:58.321Z,10.00
2022-10-03T17:17:33.435Z,10.00
2022-10-03T17:20:08.965Z,9.90
2022-10-03T17:22:44.510Z,9.90
2022-10-03T17:25:35.380Z,9.90
2022-10-03T17:28:13.232Z,9.80
2022-10-03T17:30:48.315Z,9.80
2022-10-03T17:33:23.654Z,9.90
2022-10-03T17:36:02.501Z,9.90
2022-10-03T17:38:49.702Z,9.90
2022-10-03T17:41:24.985Z,9.90
2022-10-03T17:44:01.768Z,9.90
2022-10-03T17:46:40.470Z,10.00
2022-10-03T17:49:20.949Z,9.90
2022-10-03T17:51:55.765Z,9.90
2022-10-03T17:54:33.123Z,9.90
2022-10-03T17:57:11.324Z,9.90
2022-10-03T17:59:46.904Z,9.90
2022-10-03T18:02:21.660Z,9.90
2022-10-03T18:05:01.176Z,9.90
2022-10-03T18:07:35.074Z,10.00
2022-10-03T18:10:17.564Z,9.90
2022-10-03T18:12:53.896Z,10.00
2022-10-03T18:15:42.532Z,10.00
2022-10-03T18:18:34.626Z,10.00
2022-10-03T18:21:10.911Z,10.00
2022-10-03T18:23:55.302Z,10.00
2022-10-03T18:26:32.903Z,10.00
2022-10-03T18:29:14.627Z,10.00
2022-10-03T18:31:51.473Z,10.00
2022-10-03T18:34:26.958Z,10.00
2022-10-03T18:37:02.187Z,10.10
2022-10-03T18:39:37.853Z,10.00
2022-10-03T18:42:12.823Z,10.10
2022-10-03T18:44:46.487Z,10.00
2022-10-03T18:47:26.495Z,10.00
2022-10-03T18:50:16.187Z,10.00
2022-10-03T18:52:52.482Z,10.00
2022-10-03T18:55:29.449Z,10.00
2022-10-03T18:58:06.810Z,10.00
2022-10-03T19:00:45.894Z,10.00
2022-10-03T19:03:20.599Z,10.00
2022-10-03T19:05:57.049Z,10.00
2022-10-03T19:08:31.173Z,10.00
2022-10-03T19:11:11.178Z,10.00
2022-10-03T19:13:51.841Z,10.00
2022-10-03T19:16:43.159Z,10.00
2022-10-03T19:19:20.650Z,10.00
2022-10-03T19:21:53.822Z,10.10
2022-10-03T19:24:53.509Z,10.10
2022-10-03T19:27:25.696Z,10.10
2022-10-03T19:30:00.339Z,10.10
2022-10-03T19:32:44.557Z,10.10
2022-10-03T19:35:21.276Z,10.10
2022-10-03T19:37:56.670Z,10.10
2022-10-03T19:40:43.439Z,10.10
2022-10-03T19:43:31.185Z,10.10
2022-10-03T19:46:13.975Z,10.10
2022-10-03T19:48:49.222Z,10.10
2022-10-03T19:51:25.739Z,10.10
2022-10-03T19:53:59.974Z,10.10
2022-10-03T19:56:33.811Z,10.10
2022-10-03T19:59:07.957Z,10.10
2022-10-03T20:01:46.875Z,10.10
2022-10-03T20:04:36.322Z,10.10
2022-10-03T20:07:16.871Z,10.10
2022-10-03T20:09:57.111Z,10.10
2022-10-03T20:12:31.861Z,10.00
2022-10-03T20:15:07.112Z,9.90
2022-10-03T20:17:42.112Z,9.90
2022-10-03T20:20:18.789Z,9.80
2022-10-03T20:22:54.640Z,9.80
2022-10-03T20:25:32.529Z,9.70
2022-10-03T20:28:07.140Z,9.70
2022-10-03T20:30:45.264Z,9.70
2022-10-03T20:33:22.325Z,9.70
2022-10-03T20:35:57.761Z,9.70
2022-10-03T20:38:35.567Z,9.60
2022-10-03T20:41:10.705Z,9.70
2022-10-03T20:43:45.719Z,9.70
2022-10-03T20:46:24.038Z,9.60
2022-10-03T20:49:06.969Z,9.70
2022-10-03T20:51:42.642Z,9.60
2022-10-03T20:54:19.077Z,9.70
2022-10-03T20:56:54.963Z,9.60
2022-10-03T20:59:33.832Z,9.60
2022-10-03T21:02:09.207Z,9.70
2022-10-03T21:04:51.369Z,9.60
2022-10-03T21:07:27.636Z,9.60
2022-10-03T21:10:03.810Z,9.70
2022-10-03T21:12:39.310Z,9.70
2022-10-03T21:15:14.062Z,9.70
2022-10-03T21:17:47.936Z,9.60
2022-10-03T21:20:24.098Z,9.60
2022-10-03T21:23:02.918Z,9.60
2022-10-03T21:25:37.150Z,9.60
2022-10-03T21:28:19.490Z,9.60
2022-10-03T21:31:07.509Z,9.60
2022-10-03T21:33:46.002Z,9.60
2022-10-03T21:36:23.691Z,9.70
2022-10-03T21:39:01.754Z,9.70
2022-10-03T21:41:37.924Z,9.70
2022-10-03T21:44:16.711Z,9.70
2022-10-03T21:46:56.570Z,9.70
2022-10-03T21:49:38.974Z,9.70
2022-10-03T21:52:36.036Z,9.70
2022-10-03T21:55:17.709Z,9.70
2022-10-03T21:57:57.164Z,9.70
2022-10-03T22:00:31.475Z,9.60
2022-10-03T22:03:07.581Z,9.60
2022-10-03T22:05:44.243Z,9.60
2022-10-03T22:08:22.676Z,9.60
2022-10-03T22:11:04.912Z,9.50
2022-10-03T22:13:38.765Z,9.60
2022-10-03T22:16:16.073Z,9.60
2022-10-03T22:19:05.529Z,9.60
2022-10-03T22:21:42.664Z,9.60
2022-10-03T22:24:23.083Z,9.60
2022-10-03T22:27:01.341Z,9.50
2022-10-03T22:29:36.484Z,9.50
2022-10-03T22:32:11.191Z,9.50
2022-10-03T22:34:48.001Z,9.50
2022-10-03T22:37:21.634Z,9.60
2022-10-03T22:39:55.318Z,9.50
2022-10-03T22:42:31.579Z,9.60
2022-10-03T22:45:06.116Z,9.60
2022-10-03T22:47:40.371Z,9.60
2022-10-03T22:50:15.382Z,9.60
2022-10-03T22:52:51.137Z,9.60
2022-10-03T22:55:26.139Z,9.60
2022-10-03T22:58:02.302Z,9.60
2022-10-03T23:00:36.001Z,9.60
2022-10-03T23:03:10.805Z,9.50
2022-10-03T23:05:54.850Z,9.50
2022-10-03T23:08:32.368Z,9.60
2022-10-03T23:11:08.185Z,9.60
2022-10-03T23:13:43.845Z,9.60
2022-10-03T23:16:23.940Z,9.60
2022-10-03T23:19:05.848Z,9.50
2022-10-03T23:21:44.981Z,9.50
2022-10-03T23:24:23.116Z,9.50
2022-10-03T23:27:26.456Z,9.50
2022-10-03T23:30:18.982Z,9.50
2022-10-03T23:32:55.527Z,9.50
2022-10-03T23:35:37.402Z,9.50
2022-10-03T23:38:25.529Z,9.50
2022-10-03T23:40:59.208Z,9.50
2022-10-03T23:43:34.952Z,9.50
2022-10-03T23:46:11.045Z,9.50
2022-10-03T23:48:47.284Z,9.50
2022-10-03T23:51:22.244Z,9.50
2022-10-03T23:53:58.615Z,9.50
2022-10-03T23:56:34.331Z,9.50
2022-10-03T23:59:12.424Z,9.50
